sensor_id;sensor_type;location;lat;lon;timestamp;P1;durP1;ratioP1;P2;durP2;ratioP2
28266;SDS011;15525;45.568;5.448;2022-08-03T00:00:38;3.42;;;2.22;;
28266;SDS011;15525;45.568;5.448;2022-08-03T00:03:04;4.68;;;2.05;;
28266;SDS011;15525;45.568;5.448;2022-08-03T00:05:30;2.35;;;1.85;;
28266;SDS011;15525;45.568;5.448;2022-08-03T00:07:57;2.60;;;2.00;;
28266;SDS011;15525;45.568;5.448;2022-08-03T00:10:23;3.65;;;2.40;;
28266;SDS011;15525;45.568;5.448;2022-08-03T00:12:48;3.55;;;2.10;;
28266;SDS011;15525;45.568;5.448;2022-08-03T00:15:14;3.85;;;2.20;;
28266;SDS011;15525;45.568;5.448;2022-08-03T00:17:40;2.80;;;2.20;;
28266;SDS011;15525;45.568;5.448;2022-08-03T00:20:06;2.30;;;2.00;;
28266;SDS011;15525;45.568;5.448;2022-08-03T00:22:33;3.03;;;2.08;;
28266;SDS011;15525;45.568;5.448;2022-08-03T00:24:59;2.50;;;1.98;;
28266;SDS011;15525;45.568;5.448;2022-08-03T00:27:24;3.22;;;2.20;;
28266;SDS011;15525;45.568;5.448;2022-08-03T00:29:50;3.53;;;2.22;;
28266;SDS011;15525;45.568;5.448;2022-08-03T00:32:15;2.78;;;2.13;;
28266;SDS011;15525;45.568;5.448;2022-08-03T00:34:40;3.92;;;2.30;;
28266;SDS011;15525;45.568;5.448;2022-08-03T00:37:06;2.25;;;2.00;;
28266;SDS011;15525;45.568;5.448;2022-08-03T00:39:31;5.22;;;1.90;;
28266;SDS011;15525;45.568;5.448;2022-08-03T00:41:56;3.05;;;1.90;;
28266;SDS011;15525;45.568;5.448;2022-08-03T00:44:26;3.03;;;1.90;;
28266;SDS011;15525;45.568;5.448;2022-08-03T00:46:51;3.75;;;2.10;;
28266;SDS011;15525;45.568;5.448;2022-08-03T00:49:17;3.05;;;2.20;;
28266;SDS011;15525;45.568;5.448;2022-08-03T00:51:42;2.33;;;2.10;;
28266;SDS011;15525;45.568;5.448;2022-08-03T00:54:08;3.45;;;2.40;;
28266;SDS011;15525;45.568;5.448;2022-08-03T00:56:34;2.53;;;1.90;;
28266;SDS011;15525;45.568;5.448;2022-08-03T00:59:01;3.33;;;1.90;;
28266;SDS011;15525;45.568;5.448;2022-08-03T01:01:27;4.53;;;2.13;;
28266;SDS011;15525;45.568;5.448;2022-08-03T01:03:52;3.85;;;1.83;;
28266;SDS011;15525;45.568;5.448;2022-08-03T01:06:52;4.95;;;2.17;;
28266;SDS011;15525;45.568;5.448;2022-08-03T01:09:21;3.08;;;2.00;;
28266;SDS011;15525;45.568;5.448;2022-08-03T01:12:00;3.60;;;2.20;;
28266;SDS011;15525;45.568;5.448;2022-08-03T01:17:13;4.50;;;2.10;;
28266;SDS011;15525;45.568;5.448;2022-08-03T01:30:17;3.28;;;2.20;;
28266;SDS011;15525;45.568;5.448;2022-08-03T01:38:26;3.58;;;1.95;;
28266;SDS011;15525;45.568;5.448;2022-08-03T01:40:55;3.58;;;2.28;;
28266;SDS011;15525;45.568;5.448;2022-08-03T01:43:24;2.92;;;2.10;;
28266;SDS011;15525;45.568;5.448;2022-08-03T01:45:54;2.90;;;1.95;;
28266;SDS011;15525;45.568;5.448;2022-08-03T01:48:21;2.28;;;2.08;;
28266;SDS011;15525;45.568;5.448;2022-08-03T01:50:47;3.20;;;2.00;;
28266;SDS011;15525;45.568;5.448;2022-08-03T01:53:16;2.83;;;1.98;;
28266;SDS011;15525;45.568;5.448;2022-08-03T01:55:44;4.38;;;2.03;;
28266;SDS011;15525;45.568;5.448;2022-08-03T01:58:13;3.65;;;2.00;;
28266;SDS011;15525;45.568;5.448;2022-08-03T02:00:40;3.33;;;2.13;;
28266;SDS011;15525;45.568;5.448;2022-08-03T02:03:07;3.90;;;2.35;;
28266;SDS011;15525;45.568;5.448;2022-08-03T02:05:36;5.05;;;2.25;;
28266;SDS011;15525;45.568;5.448;2022-08-03T02:08:04;4.07;;;2.10;;
28266;SDS011;15525;45.568;5.448;2022-08-03T02:10:32;3.50;;;2.08;;
28266;SDS011;15525;45.568;5.448;2022-08-03T02:13:00;2.55;;;1.95;;
28266;SDS011;15525;45.568;5.448;2022-08-03T02:15:27;3.35;;;2.30;;
28266;SDS011;15525;45.568;5.448;2022-08-03T02:17:54;3.20;;;2.10;;
28266;SDS011;15525;45.568;5.448;2022-08-03T02:20:21;3.63;;;2.13;;
28266;SDS011;15525;45.568;5.448;2022-08-03T02:22:49;2.40;;;2.20;;
28266;SDS011;15525;45.568;5.448;2022-08-03T02:25:14;5.18;;;2.30;;
28266;SDS011;15525;45.568;5.448;2022-08-03T02:27:50;2.58;;;2.10;;
28266;SDS011;15525;45.568;5.448;2022-08-03T02:30:19;3.70;;;2.30;;
28266;SDS011;15525;45.568;5.448;2022-08-03T02:32:50;2.63;;;2.10;;
28266;SDS011;15525;45.568;5.448;2022-08-03T02:35:20;2.65;;;2.17;;
28266;SDS011;15525;45.568;5.448;2022-08-03T02:37:49;2.17;;;1.98;;
28266;SDS011;15525;45.568;5.448;2022-08-03T02:40:18;3.08;;;2.00;;
28266;SDS011;15525;45.568;5.448;2022-08-03T02:42:45;4.45;;;2.05;;
28266;SDS011;15525;45.568;5.448;2022-08-03T02:45:14;2.90;;;2.17;;
28266;SDS011;15525;45.568;5.448;2022-08-03T02:47:43;4.70;;;1.98;;
28266;SDS011;15525;45.568;5.448;2022-08-03T02:50:11;3.20;;;2.20;;
28266;SDS011;15525;45.568;5.448;2022-08-03T02:52:37;2.50;;;1.90;;
28266;SDS011;15525;45.568;5.448;2022-08-03T02:55:05;3.90;;;2.20;;
28266;SDS011;15525;45.568;5.448;2022-08-03T02:57:33;3.17;;;2.28;;
28266;SDS011;15525;45.568;5.448;2022-08-03T03:00:00;1.90;;;1.73;;
28266;SDS011;15525;45.568;5.448;2022-08-03T03:02:26;3.58;;;1.92;;
28266;SDS011;15525;45.568;5.448;2022-08-03T03:04:53;2.10;;;1.90;;
28266;SDS011;15525;45.568;5.448;2022-08-03T03:07:20;4.00;;;2.10;;
28266;SDS011;15525;45.568;5.448;2022-08-03T03:09:47;4.47;;;2.30;;
28266;SDS011;15525;45.568;5.448;2022-08-03T03:12:13;3.50;;;2.22;;
28266;SDS011;15525;45.568;5.448;2022-08-03T03:14:40;3.42;;;2.50;;
28266;SDS011;15525;45.568;5.448;2022-08-03T03:17:06;3.17;;;2.13;;
28266;SDS011;15525;45.568;5.448;2022-08-03T03:19:33;3.80;;;2.38;;
28266;SDS011;15525;45.568;5.448;2022-08-03T03:22:01;2.50;;;2.15;;
28266;SDS011;15525;45.568;5.448;2022-08-03T03:24:29;4.45;;;2.40;;
28266;SDS011;15525;45.568;5.448;2022-08-03T03:26:55;4.45;;;2.60;;
28266;SDS011;15525;45.568;5.448;2022-08-03T03:29:21;4.90;;;2.47;;
28266;SDS011;15525;45.568;5.448;2022-08-03T03:31:47;4.68;;;2.47;;
28266;SDS011;15525;45.568;5.448;2022-08-03T03:34:13;2.50;;;2.20;;
28266;SDS011;15525;45.568;5.448;2022-08-03T03:36:39;5.35;;;2.38;;
28266;SDS011;15525;45.568;5.448;2022-08-03T03:39:05;5.95;;;2.40;;
28266;SDS011;15525;45.568;5.448;2022-08-03T03:41:30;4.28;;;2.90;;
28266;SDS011;15525;45.568;5.448;2022-08-03T03:43:56;2.63;;;2.20;;
28266;SDS011;15525;45.568;5.448;2022-08-03T03:46:22;4.45;;;2.25;;
28266;SDS011;15525;45.568;5.448;2022-08-03T03:48:47;2.90;;;2.60;;
28266;SDS011;15525;45.568;5.448;2022-08-03T03:51:13;2.88;;;2.17;;
28266;SDS011;15525;45.568;5.448;2022-08-03T03:53:39;2.78;;;2.45;;
28266;SDS011;15525;45.568;5.448;2022-08-03T03:56:04;6.43;;;2.40;;
28266;SDS011;15525;45.568;5.448;2022-08-03T03:58:30;3.22;;;2.20;;
28266;SDS011;15525;45.568;5.448;2022-08-03T04:00:56;2.40;;;2.20;;
28266;SDS011;15525;45.568;5.448;2022-08-03T04:03:22;3.75;;;2.42;;
28266;SDS011;15525;45.568;5.448;2022-08-03T04:05:47;3.38;;;2.55;;
28266;SDS011;15525;45.568;5.448;2022-08-03T04:08:31;5.63;;;2.40;;
28266;SDS011;15525;45.568;5.448;2022-08-03T04:13:51;3.83;;;2.45;;
28266;SDS011;15525;45.568;5.448;2022-08-03T04:16:32;6.50;;;2.80;;
28266;SDS011;15525;45.568;5.448;2022-08-03T04:19:02;5.53;;;2.30;;
28266;SDS011;15525;45.568;5.448;2022-08-03T04:21:32;3.00;;;2.50;;
28266;SDS011;15525;45.568;5.448;2022-08-03T04:24:02;5.63;;;2.53;;
28266;SDS011;15525;45.568;5.448;2022-08-03T04:26:32;5.53;;;2.40;;
28266;SDS011;15525;45.568;5.448;2022-08-03T04:29:00;5.00;;;2.40;;
28266;SDS011;15525;45.568;5.448;2022-08-03T04:31:28;7.32;;;2.22;;
28266;SDS011;15525;45.568;5.448;2022-08-03T04:33:54;4.72;;;2.47;;
28266;SDS011;15525;45.568;5.448;2022-08-03T04:36:20;6.15;;;2.30;;
28266;SDS011;15525;45.568;5.448;2022-08-03T04:38:56;5.20;;;2.50;;
28266;SDS011;15525;45.568;5.448;2022-08-03T04:41:37;5.72;;;2.40;;
28266;SDS011;15525;45.568;5.448;2022-08-03T04:44:03;5.40;;;2.10;;
28266;SDS011;15525;45.568;5.448;2022-08-03T04:46:31;5.03;;;2.80;;
28266;SDS011;15525;45.568;5.448;2022-08-03T04:49:01;4.85;;;2.40;;
28266;SDS011;15525;45.568;5.448;2022-08-03T04:51:27;5.43;;;2.40;;
28266;SDS011;15525;45.568;5.448;2022-08-03T04:53:53;4.95;;;2.15;;
28266;SDS011;15525;45.568;5.448;2022-08-03T04:56:19;7.15;;;2.78;;
28266;SDS011;15525;45.568;5.448;2022-08-03T04:58:44;8.65;;;2.55;;
28266;SDS011;15525;45.568;5.448;2022-08-03T05:01:10;3.70;;;2.10;;
28266;SDS011;15525;45.568;5.448;2022-08-03T05:03:35;4.25;;;2.50;;
28266;SDS011;15525;45.568;5.448;2022-08-03T05:06:01;5.53;;;2.60;;
28266;SDS011;15525;45.568;5.448;2022-08-03T05:08:27;4.38;;;2.30;;
28266;SDS011;15525;45.568;5.448;2022-08-03T05:10:52;3.08;;;2.30;;
28266;SDS011;15525;45.568;5.448;2022-08-03T05:13:18;5.40;;;2.50;;
28266;SDS011;15525;45.568;5.448;2022-08-03T05:15:43;3.33;;;2.58;;
28266;SDS011;15525;45.568;5.448;2022-08-03T05:18:09;5.65;;;2.65;;
28266;SDS011;15525;45.568;5.448;2022-08-03T05:20:34;3.78;;;2.38;;
28266;SDS011;15525;45.568;5.448;2022-08-03T05:22:59;7.85;;;2.78;;
28266;SDS011;15525;45.568;5.448;2022-08-03T05:25:27;7.80;;;2.58;;
28266;SDS011;15525;45.568;5.448;2022-08-03T05:27:53;6.63;;;2.28;;
28266;SDS011;15525;45.568;5.448;2022-08-03T05:30:19;7.93;;;2.58;;
28266;SDS011;15525;45.568;5.448;2022-08-03T05:32:44;9.02;;;2.70;;
28266;SDS011;15525;45.568;5.448;2022-08-03T05:35:09;6.22;;;2.50;;
28266;SDS011;15525;45.568;5.448;2022-08-03T05:37:35;8.73;;;3.65;;
28266;SDS011;15525;45.568;5.448;2022-08-03T05:40:01;11.40;;;2.90;;
28266;SDS011;15525;45.568;5.448;2022-08-03T05:42:26;8.25;;;3.03;;
28266;SDS011;15525;45.568;5.448;2022-08-03T05:44:52;8.55;;;2.72;;
28266;SDS011;15525;45.568;5.448;2022-08-03T05:47:17;6.13;;;2.80;;
28266;SDS011;15525;45.568;5.448;2022-08-03T05:49:43;10.80;;;2.50;;
28266;SDS011;15525;45.568;5.448;2022-08-03T05:52:08;12.35;;;2.97;;
28266;SDS011;15525;45.568;5.448;2022-08-03T05:54:34;26.80;;;3.63;;
28266;SDS011;15525;45.568;5.448;2022-08-03T05:56:59;15.05;;;3.50;;
28266;SDS011;15525;45.568;5.448;2022-08-03T05:59:25;13.88;;;2.88;;
28266;SDS011;15525;45.568;5.448;2022-08-03T06:01:50;17.02;;;3.22;;
28266;SDS011;15525;45.568;5.448;2022-08-03T06:04:16;12.80;;;3.17;;
28266;SDS011;15525;45.568;5.448;2022-08-03T06:06:41;16.58;;;3.35;;
28266;SDS011;15525;45.568;5.448;2022-08-03T06:09:07;17.83;;;3.90;;
28266;SDS011;15525;45.568;5.448;2022-08-03T06:11:34;9.52;;;3.00;;
28266;SDS011;15525;45.568;5.448;2022-08-03T06:14:00;7.75;;;2.72;;
28266;SDS011;15525;45.568;5.448;2022-08-03T06:16:25;8.68;;;2.78;;
28266;SDS011;15525;45.568;5.448;2022-08-03T06:18:51;7.75;;;2.72;;
28266;SDS011;15525;45.568;5.448;2022-08-03T06:21:16;4.93;;;2.63;;
28266;SDS011;15525;45.568;5.448;2022-08-03T06:23:42;6.97;;;2.60;;
28266;SDS011;15525;45.568;5.448;2022-08-03T06:26:08;4.97;;;2.30;;
28266;SDS011;15525;45.568;5.448;2022-08-03T06:28:33;7.60;;;2.70;;
28266;SDS011;15525;45.568;5.448;2022-08-03T06:30:59;11.68;;;2.70;;
28266;SDS011;15525;45.568;5.448;2022-08-03T06:33:25;12.40;;;3.33;;
28266;SDS011;15525;45.568;5.448;2022-08-03T06:35:50;11.10;;;2.70;;
28266;SDS011;15525;45.568;5.448;2022-08-03T06:38:16;11.40;;;2.78;;
28266;SDS011;15525;45.568;5.448;2022-08-03T06:40:41;8.13;;;2.80;;
28266;SDS011;15525;45.568;5.448;2022-08-03T06:43:06;6.38;;;2.38;;
28266;SDS011;15525;45.568;5.448;2022-08-03T06:45:32;7.50;;;2.50;;
28266;SDS011;15525;45.568;5.448;2022-08-03T06:47:59;4.38;;;2.47;;
28266;SDS011;15525;45.568;5.448;2022-08-03T06:50:28;4.32;;;2.10;;
28266;SDS011;15525;45.568;5.448;2022-08-03T06:52:54;5.05;;;2.45;;
28266;SDS011;15525;45.568;5.448;2022-08-03T06:55:19;7.10;;;2.60;;
28266;SDS011;15525;45.568;5.448;2022-08-03T06:57:45;4.72;;;2.55;;
28266;SDS011;15525;45.568;5.448;2022-08-03T07:00:11;3.70;;;2.40;;
28266;SDS011;15525;45.568;5.448;2022-08-03T07:02:37;2.65;;;2.30;;
28266;SDS011;15525;45.568;5.448;2022-08-03T07:05:09;4.25;;;2.33;;
28266;SDS011;15525;45.568;5.448;2022-08-03T07:07:35;4.53;;;2.58;;
28266;SDS011;15525;45.568;5.448;2022-08-03T07:10:02;4.88;;;2.30;;
28266;SDS011;15525;45.568;5.448;2022-08-03T07:12:29;4.75;;;2.40;;
28266;SDS011;15525;45.568;5.448;2022-08-03T07:14:55;6.13;;;2.45;;
28266;SDS011;15525;45.568;5.448;2022-08-03T07:17:22;3.30;;;2.25;;
28266;SDS011;15525;45.568;5.448;2022-08-03T07:19:47;5.10;;;2.33;;
28266;SDS011;15525;45.568;5.448;2022-08-03T07:22:12;2.72;;;2.22;;
28266;SDS011;15525;45.568;5.448;2022-08-03T07:24:38;5.45;;;2.40;;
28266;SDS011;15525;45.568;5.448;2022-08-03T07:27:03;2.40;;;2.08;;
28266;SDS011;15525;45.568;5.448;2022-08-03T07:29:29;5.63;;;2.50;;
28266;SDS011;15525;45.568;5.448;2022-08-03T07:31:54;5.97;;;2.20;;
28266;SDS011;15525;45.568;5.448;2022-08-03T07:34:20;4.43;;;2.20;;
28266;SDS011;15525;45.568;5.448;2022-08-03T07:36:45;3.50;;;2.30;;
28266;SDS011;15525;45.568;5.448;2022-08-03T07:39:10;4.15;;;2.20;;
28266;SDS011;15525;45.568;5.448;2022-08-03T07:41:36;3.53;;;2.45;;
28266;SDS011;15525;45.568;5.448;2022-08-03T07:44:02;2.42;;;2.00;;
28266;SDS011;15525;45.568;5.448;2022-08-03T07:46:27;5.10;;;2.08;;
28266;SDS011;15525;45.568;5.448;2022-08-03T07:48:53;2.95;;;2.10;;
28266;SDS011;15525;45.568;5.448;2022-08-03T07:51:18;4.65;;;2.17;;
28266;SDS011;15525;45.568;5.448;2022-08-03T07:53:44;2.53;;;2.15;;
28266;SDS011;15525;45.568;5.448;2022-08-03T07:56:09;4.57;;;2.42;;
28266;SDS011;15525;45.568;5.448;2022-08-03T07:58:34;3.03;;;2.40;;
28266;SDS011;15525;45.568;5.448;2022-08-03T08:01:00;2.45;;;2.10;;
28266;SDS011;15525;45.568;5.448;2022-08-03T08:03:26;3.15;;;2.30;;
28266;SDS011;15525;45.568;5.448;2022-08-03T08:05:51;7.63;;;2.28;;
28266;SDS011;15525;45.568;5.448;2022-08-03T08:08:17;4.70;;;2.22;;
28266;SDS011;15525;45.568;5.448;2022-08-03T08:10:44;4.13;;;2.13;;
28266;SDS011;15525;45.568;5.448;2022-08-03T08:13:10;4.72;;;2.20;;
28266;SDS011;15525;45.568;5.448;2022-08-03T08:15:35;3.42;;;2.33;;
28266;SDS011;15525;45.568;5.448;2022-08-03T08:18:01;3.65;;;2.17;;
28266;SDS011;15525;45.568;5.448;2022-08-03T08:20:31;4.15;;;2.05;;
28266;SDS011;15525;45.568;5.448;2022-08-03T08:23:00;2.33;;;2.13;;
28266;SDS011;15525;45.568;5.448;2022-08-03T08:25:27;4.35;;;2.15;;
28266;SDS011;15525;45.568;5.448;2022-08-03T08:27:54;5.40;;;2.20;;
28266;SDS011;15525;45.568;5.448;2022-08-03T08:30:20;4.20;;;2.20;;
28266;SDS011;15525;45.568;5.448;2022-08-03T08:32:47;2.50;;;2.08;;
28266;SDS011;15525;45.568;5.448;2022-08-03T08:35:13;2.15;;;1.92;;
28266;SDS011;15525;45.568;5.448;2022-08-03T08:37:39;3.63;;;2.15;;
28266;SDS011;15525;45.568;5.448;2022-08-03T08:40:05;4.70;;;2.30;;
28266;SDS011;15525;45.568;5.448;2022-08-03T08:42:32;2.85;;;2.15;;
28266;SDS011;15525;45.568;5.448;2022-08-03T08:45:01;4.82;;;2.20;;
28266;SDS011;15525;45.568;5.448;2022-08-03T08:47:29;2.83;;;2.10;;
28266;SDS011;15525;45.568;5.448;2022-08-03T08:49:56;5.55;;;2.30;;
28266;SDS011;15525;45.568;5.448;2022-08-03T08:52:26;3.58;;;2.35;;
28266;SDS011;15525;45.568;5.448;2022-08-03T08:55:00;3.80;;;2.13;;
28266;SDS011;15525;45.568;5.448;2022-08-03T08:57:28;3.10;;;2.08;;
28266;SDS011;15525;45.568;5.448;2022-08-03T09:00:00;2.22;;;1.90;;
28266;SDS011;15525;45.568;5.448;2022-08-03T09:02:28;4.70;;;2.03;;
28266;SDS011;15525;45.568;5.448;2022-08-03T09:04:54;3.38;;;2.05;;
28266;SDS011;15525;45.568;5.448;2022-08-03T09:07:20;3.97;;;2.00;;
28266;SDS011;15525;45.568;5.448;2022-08-03T09:09:46;3.35;;;2.17;;
28266;SDS011;15525;45.568;5.448;2022-08-03T09:12:12;4.25;;;2.30;;
28266;SDS011;15525;45.568;5.448;2022-08-03T09:14:37;2.28;;;2.08;;
28266;SDS011;15525;45.568;5.448;2022-08-03T09:17:03;3.50;;;2.30;;
28266;SDS011;15525;45.568;5.448;2022-08-03T09:19:29;4.13;;;2.40;;
28266;SDS011;15525;45.568;5.448;2022-08-03T09:22:06;3.90;;;2.10;;
28266;SDS011;15525;45.568;5.448;2022-08-03T09:24:35;2.30;;;2.10;;
28266;SDS011;15525;45.568;5.448;2022-08-03T09:27:01;2.63;;;2.00;;
28266;SDS011;15525;45.568;5.448;2022-08-03T09:29:26;4.20;;;2.08;;
28266;SDS011;15525;45.568;5.448;2022-08-03T09:32:00;2.63;;;2.00;;
28266;SDS011;15525;45.568;5.448;2022-08-03T09:34:27;3.60;;;2.30;;
28266;SDS011;15525;45.568;5.448;2022-08-03T09:36:53;3.45;;;1.90;;
28266;SDS011;15525;45.568;5.448;2022-08-03T09:39:20;2.90;;;2.20;;
28266;SDS011;15525;45.568;5.448;2022-08-03T09:41:48;3.20;;;2.42;;
28266;SDS011;15525;45.568;5.448;2022-08-03T09:44:39;2.75;;;2.10;;
28266;SDS011;15525;45.568;5.448;2022-08-03T09:47:06;3.55;;;2.13;;
28266;SDS011;15525;45.568;5.448;2022-08-03T09:49:33;4.95;;;2.40;;
28266;SDS011;15525;45.568;5.448;2022-08-03T09:52:00;5.03;;;2.40;;
28266;SDS011;15525;45.568;5.448;2022-08-03T09:54:35;3.90;;;2.10;;
28266;SDS011;15525;45.568;5.448;2022-08-03T09:57:00;5.35;;;2.70;;
28266;SDS011;15525;45.568;5.448;2022-08-03T09:59:27;5.25;;;2.45;;
28266;SDS011;15525;45.568;5.448;2022-08-03T10:01:55;4.72;;;2.60;;
28266;SDS011;15525;45.568;5.448;2022-08-03T10:04:22;6.25;;;2.03;;
28266;SDS011;15525;45.568;5.448;2022-08-03T10:07:08;3.50;;;2.08;;
28266;SDS011;15525;45.568;5.448;2022-08-03T10:09:35;3.38;;;2.53;;
28266;SDS011;15525;45.568;5.448;2022-08-03T10:12:08;4.78;;;2.70;;
28266;SDS011;15525;45.568;5.448;2022-08-03T10:14:38;3.53;;;2.67;;
28266;SDS011;15525;45.568;5.448;2022-08-03T10:17:05;3.20;;;2.45;;
28266;SDS011;15525;45.568;5.448;2022-08-03T10:19:31;6.50;;;2.63;;
28266;SDS011;15525;45.568;5.448;2022-08-03T10:22:00;4.15;;;3.20;;
28266;SDS011;15525;45.568;5.448;2022-08-03T10:24:28;3.97;;;3.25;;
28266;SDS011;15525;45.568;5.448;2022-08-03T10:27:04;3.65;;;2.70;;
28266;SDS011;15525;45.568;5.448;2022-08-03T10:29:41;4.80;;;3.10;;
28266;SDS011;15525;45.568;5.448;2022-08-03T10:32:12;5.55;;;3.40;;
28266;SDS011;15525;45.568;5.448;2022-08-03T10:37:09;3.50;;;3.20;;
28266;SDS011;15525;45.568;5.448;2022-08-03T10:39:38;3.95;;;2.83;;
28266;SDS011;15525;45.568;5.448;2022-08-03T10:42:17;3.40;;;3.10;;
28266;SDS011;15525;45.568;5.448;2022-08-03T10:44:45;3.38;;;3.08;;
28266;SDS011;15525;45.568;5.448;2022-08-03T10:47:13;6.30;;;3.28;;
28266;SDS011;15525;45.568;5.448;2022-08-03T10:49:39;3.47;;;3.17;;
28266;SDS011;15525;45.568;5.448;2022-08-03T10:52:05;4.50;;;3.40;;
28266;SDS011;15525;45.568;5.448;2022-08-03T11:00:12;3.25;;;2.88;;
28266;SDS011;15525;45.568;5.448;2022-08-03T11:05:31;3.72;;;3.00;;
28266;SDS011;15525;45.568;5.448;2022-08-03T11:10:42;5.45;;;3.58;;
28266;SDS011;15525;45.568;5.448;2022-08-03T11:13:08;3.55;;;3.13;;
28266;SDS011;15525;45.568;5.448;2022-08-03T11:15:35;4.78;;;3.00;;
28266;SDS011;15525;45.568;5.448;2022-08-03T11:18:07;3.22;;;2.90;;
28266;SDS011;15525;45.568;5.448;2022-08-03T11:20:53;4.00;;;3.10;;
28266;SDS011;15525;45.568;5.448;2022-08-03T11:26:08;3.40;;;3.10;;
28266;SDS011;15525;45.568;5.448;2022-08-03T11:28:44;4.25;;;2.90;;
28266;SDS011;15525;45.568;5.448;2022-08-03T11:34:04;3.50;;;2.90;;
28266;SDS011;15525;45.568;5.448;2022-08-03T11:39:40;2.90;;;2.70;;
28266;SDS011;15525;45.568;5.448;2022-08-03T11:47:16;4.43;;;3.00;;
28266;SDS011;15525;45.568;5.448;2022-08-03T11:49:47;3.35;;;3.05;;
28266;SDS011;15525;45.568;5.448;2022-08-03T11:52:13;5.20;;;3.03;;
28266;SDS011;15525;45.568;5.448;2022-08-03T11:54:41;5.10;;;3.15;;
28266;SDS011;15525;45.568;5.448;2022-08-03T11:57:06;3.75;;;3.17;;
28266;SDS011;15525;45.568;5.448;2022-08-03T11:59:32;3.80;;;3.50;;
28266;SDS011;15525;45.568;5.448;2022-08-03T12:02:08;3.95;;;3.58;;
28266;SDS011;15525;45.568;5.448;2022-08-03T12:07:17;4.07;;;3.40;;
28266;SDS011;15525;45.568;5.448;2022-08-03T12:09:43;4.22;;;3.15;;
28266;SDS011;15525;45.568;5.448;2022-08-03T12:12:29;5.43;;;2.78;;
28266;SDS011;15525;45.568;5.448;2022-08-03T12:14:54;3.58;;;3.28;;
28266;SDS011;15525;45.568;5.448;2022-08-03T12:17:20;3.92;;;3.50;;
28266;SDS011;15525;45.568;5.448;2022-08-03T12:19:45;4.15;;;3.22;;
28266;SDS011;15525;45.568;5.448;2022-08-03T12:22:11;4.60;;;3.20;;
28266;SDS011;15525;45.568;5.448;2022-08-03T12:24:40;3.65;;;3.20;;
28266;SDS011;15525;45.568;5.448;2022-08-03T12:27:09;3.60;;;3.30;;
28266;SDS011;15525;45.568;5.448;2022-08-03T12:29:34;3.55;;;3.25;;
28266;SDS011;15525;45.568;5.448;2022-08-03T12:32:00;4.75;;;3.35;;
28266;SDS011;15525;45.568;5.448;2022-08-03T12:34:44;4.85;;;3.30;;
28266;SDS011;15525;45.568;5.448;2022-08-03T12:37:13;3.60;;;3.20;;
28266;SDS011;15525;45.568;5.448;2022-08-03T12:39:43;3.45;;;3.15;;
28266;SDS011;15525;45.568;5.448;2022-08-03T12:42:14;4.18;;;2.90;;
28266;SDS011;15525;45.568;5.448;2022-08-03T12:44:39;3.38;;;3.10;;
28266;SDS011;15525;45.568;5.448;2022-08-03T12:47:05;3.53;;;3.22;;
28266;SDS011;15525;45.568;5.448;2022-08-03T12:49:49;3.63;;;3.10;;
28266;SDS011;15525;45.568;5.448;2022-08-03T12:52:17;3.30;;;3.00;;
28266;SDS011;15525;45.568;5.448;2022-08-03T12:54:54;4.28;;;2.95;;
28266;SDS011;15525;45.568;5.448;2022-08-03T12:57:21;3.63;;;2.92;;
28266;SDS011;15525;45.568;5.448;2022-08-03T12:59:47;3.92;;;3.63;;
28266;SDS011;15525;45.568;5.448;2022-08-03T13:02:13;3.38;;;3.15;;
28266;SDS011;15525;45.568;5.448;2022-08-03T13:04:40;4.32;;;3.30;;
28266;SDS011;15525;45.568;5.448;2022-08-03T13:07:07;3.72;;;2.92;;
28266;SDS011;15525;45.568;5.448;2022-08-03T13:09:40;2.95;;;2.75;;
28266;SDS011;15525;45.568;5.448;2022-08-03T13:12:11;3.38;;;2.80;;
28266;SDS011;15525;45.568;5.448;2022-08-03T13:14:39;3.45;;;2.72;;
28266;SDS011;15525;45.568;5.448;2022-08-03T13:17:08;3.60;;;3.30;;
28266;SDS011;15525;45.568;5.448;2022-08-03T13:19:34;5.63;;;3.20;;
28266;SDS011;15525;45.568;5.448;2022-08-03T13:22:09;3.40;;;3.10;;
28266;SDS011;15525;45.568;5.448;2022-08-03T13:24:44;3.67;;;3.05;;
28266;SDS011;15525;45.568;5.448;2022-08-03T13:27:11;4.30;;;3.00;;
28266;SDS011;15525;45.568;5.448;2022-08-03T13:29:37;3.72;;;3.00;;
28266;SDS011;15525;45.568;5.448;2022-08-03T13:32:04;4.38;;;3.00;;
28266;SDS011;15525;45.568;5.448;2022-08-03T13:34:31;10.88;;;2.90;;
28266;SDS011;15525;45.568;5.448;2022-08-03T13:36:56;4.22;;;3.00;;
28266;SDS011;15525;45.568;5.448;2022-08-03T13:39:22;3.20;;;2.90;;
28266;SDS011;15525;45.568;5.448;2022-08-03T13:41:47;3.33;;;2.83;;
28266;SDS011;15525;45.568;5.448;2022-08-03T13:44:13;3.38;;;2.80;;
28266;SDS011;15525;45.568;5.448;2022-08-03T13:46:39;3.90;;;2.90;;
28266;SDS011;15525;45.568;5.448;2022-08-03T13:49:05;3.63;;;2.95;;
28266;SDS011;15525;45.568;5.448;2022-08-03T13:51:31;4.07;;;2.70;;
28266;SDS011;15525;45.568;5.448;2022-08-03T13:53:57;3.38;;;2.70;;
28266;SDS011;15525;45.568;5.448;2022-08-03T13:56:27;3.75;;;2.75;;
28266;SDS011;15525;45.568;5.448;2022-08-03T13:58:54;3.30;;;2.80;;
28266;SDS011;15525;45.568;5.448;2022-08-03T14:01:20;3.38;;;2.60;;
28266;SDS011;15525;45.568;5.448;2022-08-03T14:03:46;2.90;;;2.70;;
28266;SDS011;15525;45.568;5.448;2022-08-03T14:06:14;2.67;;;2.42;;
28266;SDS011;15525;45.568;5.448;2022-08-03T14:08:39;2.80;;;2.60;;
28266;SDS011;15525;45.568;5.448;2022-08-03T14:11:05;4.07;;;2.70;;
28266;SDS011;15525;45.568;5.448;2022-08-03T14:13:30;3.35;;;3.05;;
28266;SDS011;15525;45.568;5.448;2022-08-03T14:15:56;3.00;;;2.80;;
28266;SDS011;15525;45.568;5.448;2022-08-03T14:18:21;4.03;;;2.88;;
28266;SDS011;15525;45.568;5.448;2022-08-03T14:20:47;2.88;;;2.67;;
28266;SDS011;15525;45.568;5.448;2022-08-03T14:23:13;4.43;;;2.70;;
28266;SDS011;15525;45.568;5.448;2022-08-03T14:25:38;4.50;;;3.05;;
28266;SDS011;15525;45.568;5.448;2022-08-03T14:28:05;3.38;;;3.08;;
28266;SDS011;15525;45.568;5.448;2022-08-03T14:30:31;3.78;;;2.90;;
28266;SDS011;15525;45.568;5.448;2022-08-03T14:32:57;3.58;;;2.70;;
28266;SDS011;15525;45.568;5.448;2022-08-03T14:35:23;3.85;;;2.88;;
28266;SDS011;15525;45.568;5.448;2022-08-03T14:37:48;3.38;;;2.88;;
28266;SDS011;15525;45.568;5.448;2022-08-03T14:40:14;3.40;;;3.00;;
28266;SDS011;15525;45.568;5.448;2022-08-03T14:42:39;3.45;;;3.08;;
28266;SDS011;15525;45.568;5.448;2022-08-03T14:45:05;3.20;;;3.00;;
28266;SDS011;15525;45.568;5.448;2022-08-03T14:47:31;3.28;;;2.97;;
28266;SDS011;15525;45.568;5.448;2022-08-03T14:49:57;3.03;;;2.83;;
28266;SDS011;15525;45.568;5.448;2022-08-03T14:52:22;3.38;;;3.00;;
28266;SDS011;15525;45.568;5.448;2022-08-03T14:54:48;3.30;;;2.80;;
28266;SDS011;15525;45.568;5.448;2022-08-03T14:57:13;3.08;;;2.78;;
28266;SDS011;15525;45.568;5.448;2022-08-03T14:59:38;3.05;;;2.75;;
28266;SDS011;15525;45.568;5.448;2022-08-03T15:02:04;2.90;;;2.70;;
28266;SDS011;15525;45.568;5.448;2022-08-03T15:04:29;7.20;;;2.65;;
28266;SDS011;15525;45.568;5.448;2022-08-03T15:06:55;3.20;;;2.90;;
28266;SDS011;15525;45.568;5.448;2022-08-03T15:09:20;5.20;;;2.90;;
28266;SDS011;15525;45.568;5.448;2022-08-03T15:11:45;4.45;;;2.70;;
28266;SDS011;15525;45.568;5.448;2022-08-03T15:14:11;3.40;;;3.00;;
28266;SDS011;15525;45.568;5.448;2022-08-03T15:16:37;2.70;;;2.35;;
28266;SDS011;15525;45.568;5.448;2022-08-03T15:19:03;3.25;;;2.80;;
28266;SDS011;15525;45.568;5.448;2022-08-03T15:21:28;2.90;;;2.42;;
28266;SDS011;15525;45.568;5.448;2022-08-03T15:23:54;2.95;;;2.53;;
28266;SDS011;15525;45.568;5.448;2022-08-03T15:26:19;3.65;;;2.50;;
28266;SDS011;15525;45.568;5.448;2022-08-03T15:28:44;3.35;;;2.30;;
28266;SDS011;15525;45.568;5.448;2022-08-03T15:31:10;2.70;;;2.50;;
28266;SDS011;15525;45.568;5.448;2022-08-03T15:33:35;2.55;;;2.30;;
28266;SDS011;15525;45.568;5.448;2022-08-03T15:36:01;2.63;;;2.42;;
28266;SDS011;15525;45.568;5.448;2022-08-03T15:38:27;4.05;;;2.70;;
28266;SDS011;15525;45.568;5.448;2022-08-03T15:40:53;3.83;;;2.60;;